createdAt,value
2023-03-04T00:00:45.649Z,59.29
2023-03-04T00:05:47.291Z,59.70
2023-03-04T00:10:48.658Z,59.52
2023-03-04T00:15:50.046Z,59.18
2023-03-04T00:20:51.450Z,59.82
2023-03-04T00:25:52.900Z,60.24
2023-03-04T00:30:54.254Z,59.53
2023-03-04T00:35:55.926Z,59.69
2023-03-04T00:40:57.352Z,60.39
2023-03-04T00:45:59.775Z,60.50
2023-03-04T00:51:01.130Z,60.55
2023-03-04T00:56:02.501Z,60.07
2023-03-04T01:01:03.984Z,60.00
2023-03-04T01:06:05.643Z,60.78
2023-03-04T01:11:07.446Z,60.58
2023-03-04T01:16:10.218Z,60.48
2023-03-04T01:21:11.631Z,60.22
2023-03-04T01:26:13.022Z,60.40
2023-03-04T01:31:14.475Z,60.93
2023-03-04T01:36:15.888Z,61.31
2023-03-04T01:41:22.406Z,61.12
2023-03-04T01:46:24.289Z,61.41
2023-03-04T01:51:25.794Z,61.69
2023-03-04T01:56:35.552Z,61.07
2023-03-04T02:01:38.758Z,60.71
2023-03-04T02:06:41.236Z,60.70
2023-03-04T02:11:44.425Z,61.00
2023-03-04T02:16:46.894Z,60.58
2023-03-04T02:21:48.330Z,60.81
2023-03-04T02:26:49.736Z,60.63
2023-03-04T02:31:53.404Z,60.34
2023-03-04T02:36:55.897Z,60.28
2023-03-04T02:41:58.145Z,60.13
2023-03-04T02:47:00.459Z,60.26
2023-03-04T02:52:03.604Z,60.50
2023-03-04T02:57:07.932Z,60.06
2023-03-04T03:02:10.250Z,60.14
2023-03-04T03:07:11.692Z,59.66
2023-03-04T03:12:13.095Z,59.92
2023-03-04T03:17:14.468Z,59.98
2023-03-04T03:22:15.877Z,60.00
2023-03-04T03:27:17.293Z,60.08
2023-03-04T03:32:18.723Z,60.15
2023-03-04T03:37:20.275Z,60.18
2023-03-04T03:42:21.632Z,60.36
2023-03-04T03:47:23.137Z,59.94
2023-03-04T03:52:24.536Z,59.70
2023-03-04T03:57:25.938Z,59.40
2023-03-04T04:02:27.587Z,59.67
2023-03-04T04:07:29.075Z,59.40
2023-03-04T04:12:30.690Z,59.49
2023-03-04T04:17:32.113Z,59.49
2023-03-04T04:22:34.038Z,59.60
2023-03-04T04:27:35.477Z,59.53
2023-03-04T04:32:37.032Z,59.46
2023-03-04T04:37:38.392Z,59.63
2023-03-04T04:42:39.739Z,59.75
2023-03-04T04:47:41.122Z,59.58
2023-03-04T04:52:42.605Z,59.88
2023-03-04T04:57:44.064Z,59.98
2023-03-04T05:02:45.550Z,59.63
2023-03-04T05:07:46.907Z,59.97
2023-03-04T05:12:49.706Z,59.70
2023-03-04T05:17:51.119Z,59.84
2023-03-04T05:22:52.523Z,59.55
2023-03-04T05:27:53.885Z,59.83
2023-03-04T05:32:55.230Z,59.70
2023-03-04T05:37:56.579Z,60.00
2023-03-04T05:42:58.082Z,60.02
2023-03-04T05:48:00.125Z,59.70
2023-03-04T05:53:01.541Z,59.73
2023-03-04T05:58:02.976Z,59.68
2023-03-04T06:03:04.443Z,59.52
2023-03-04T06:08:05.912Z,59.38
2023-03-04T06:13:08.017Z,58.76
2023-03-04T06:18:09.465Z,58.97
2023-03-04T06:23:10.892Z,58.28
2023-03-04T06:28:12.303Z,58.24
2023-03-04T06:33:13.701Z,58.17
2023-03-04T06:38:15.341Z,57.85
2023-03-04T06:43:16.870Z,57.83
2023-03-04T06:48:18.211Z,57.63
2023-03-04T06:53:19.601Z,57.46
2023-03-04T06:58:20.953Z,57.49
2023-03-04T07:03:22.574Z,57.40
2023-03-04T07:08:23.921Z,57.83
2023-03-04T07:13:25.323Z,57.13
2023-03-04T07:18:26.857Z,57.13
2023-03-04T07:23:28.331Z,57.02
2023-03-04T07:28:29.846Z,56.70
2023-03-04T07:33:31.192Z,56.74
2023-03-04T07:38:32.916Z,57.18
2023-03-04T07:43:34.411Z,57.04
2023-03-04T07:48:37.112Z,57.31
2023-03-04T07:53:39.977Z,57.27
2023-03-04T07:58:41.934Z,56.93
2023-03-04T08:03:43.617Z,56.50
2023-03-04T08:08:46.013Z,55.76
2023-03-04T08:13:48.723Z,55.17
2023-03-04T08:18:52.692Z,55.75
2023-03-04T08:23:55.053Z,55.42
2023-03-04T08:28:57.553Z,56.18
2023-03-04T08:33:59.012Z,55.30
2023-03-04T08:39:00.462Z,55.57
2023-03-04T08:44:02.003Z,54.98
2023-03-04T08:49:04.210Z,55.36
2023-03-04T08:54:05.818Z,54.53
2023-03-04T08:59:07.188Z,54.69
2023-03-04T09:04:08.865Z,53.98
2023-03-04T09:09:10.308Z,54.45
2023-03-04T09:14:11.852Z,53.75
2023-03-04T09:19:13.242Z,54.17
2023-03-04T09:24:14.724Z,54.20
2023-03-04T09:29:16.077Z,54.32
2023-03-04T09:34:17.484Z,53.32
2023-03-04T09:39:18.929Z,53.84
2023-03-04T09:44:30.680Z,53.51
2023-03-04T09:49:32.363Z,52.99
2023-03-04T09:54:45.111Z,53.44
2023-03-04T10:00:07.830Z,53.41
2023-03-04T10:05:16.498Z,52.95
2023-03-04T10:10:40.179Z,52.84
2023-03-04T10:15:46.450Z,52.55
2023-03-04T10:21:06.664Z,52.24
2023-03-04T10:26:13.752Z,52.26
2023-03-04T10:31:29.030Z,52.45
2023-03-04T10:36:30.423Z,51.88
2023-03-04T10:41:32.330Z,52.01
2023-03-04T10:46:38.339Z,52.21
2023-03-04T10:52:03.582Z,52.08
2023-03-04T10:57:13.702Z,51.38
2023-03-04T11:02:15.056Z,52.19
2023-03-04T11:07:16.476Z,51.58
2023-03-04T11:12:22.132Z,51.72
2023-03-04T11:17:48.523Z,51.85
2023-03-04T11:22:51.802Z,51.54
2023-03-04T11:28:00.732Z,50.85
2023-03-04T11:33:26.986Z,51.60
2023-03-04T11:38:39.307Z,50.53
2023-03-04T11:43:46.603Z,50.89
2023-03-04T11:49:07.057Z,50.62
2023-03-04T11:54:32.361Z,50.25
2023-03-04T11:59:58.614Z,50.22
2023-03-04T12:05:17.431Z,50.35
2023-03-04T12:10:52.694Z,50.18
2023-03-04T12:16:00.331Z,49.28
2023-03-04T12:21:01.612Z,49.86
2023-03-04T12:26:08.566Z,49.75
2023-03-04T12:31:33.203Z,49.81
2023-03-04T12:36:37.282Z,49.48
2023-03-04T12:42:29.441Z,49.68
2023-03-04T12:47:51.158Z,48.96
2023-03-04T12:53:14.488Z,48.85
2023-03-04T12:58:19.900Z,48.16
2023-03-04T13:03:24.473Z,48.30
2023-03-04T13:08:33.343Z,47.98
2023-03-04T13:13:37.351Z,47.77
2023-03-04T13:18:39.489Z,47.93
2023-03-04T13:23:42.127Z,47.91
2023-03-04T13:28:43.831Z,48.20
2023-03-04T13:33:49.494Z,48.36
2023-03-04T13:39:21.881Z,47.92
2023-03-04T13:44:44.907Z,48.02
2023-03-04T13:55:33.342Z,47.86
2023-03-04T14:06:18.159Z,48.31
2023-03-04T14:11:38.466Z,48.47
2023-03-04T14:16:56.084Z,48.58
2023-03-04T14:21:59.448Z,48.71
2023-03-04T14:27:11.060Z,48.84
2023-03-04T14:32:12.849Z,49.52
2023-03-04T14:37:27.050Z,49.27
2023-03-04T14:42:39.215Z,49.76
2023-03-04T14:47:45.181Z,50.00
2023-03-04T14:52:51.573Z,50.11
2023-03-04T14:58:05.732Z,50.59
2023-03-04T15:03:21.743Z,50.42
2023-03-04T15:08:32.732Z,50.00
2023-03-04T15:13:50.405Z,50.39
2023-03-04T15:19:26.293Z,50.72
2023-03-04T15:24:27.648Z,51.08
2023-03-04T15:29:29.104Z,50.58
2023-03-04T15:34:31.380Z,50.58
2023-03-04T15:39:32.843Z,50.80
2023-03-04T15:44:34.234Z,50.64
2023-03-04T15:49:35.611Z,51.34
2023-03-04T15:54:36.991Z,51.63
2023-03-04T15:59:38.418Z,51.79
2023-03-04T16:04:39.798Z,52.38
2023-03-04T16:09:41.210Z,52.13
2023-03-04T16:14:44.270Z,52.31
2023-03-04T16:19:46.701Z,52.91
2023-03-04T16:24:48.105Z,52.77
2023-03-04T16:29:49.493Z,52.49
2023-03-04T16:34:50.865Z,53.27
2023-03-04T16:39:52.444Z,53.00
2023-03-04T16:44:55.206Z,52.97
2023-03-04T16:49:57.591Z,53.66
2023-03-04T16:55:00.154Z,54.02
2023-03-04T17:00:01.666Z,54.32
2023-03-04T17:05:04.202Z,54.59
2023-03-04T17:10:06.037Z,55.12
2023-03-04T17:15:09.927Z,54.99
2023-03-04T17:20:14.347Z,54.59
2023-03-04T17:25:16.021Z,55.18
2023-03-04T17:30:17.641Z,56.43
2023-03-04T17:35:19.328Z,56.28
2023-03-04T17:40:20.874Z,56.60
2023-03-04T17:45:22.294Z,56.20
2023-03-04T17:50:23.692Z,56.54
2023-03-04T17:55:26.339Z,57.03
2023-03-04T18:00:27.817Z,56.73
2023-03-04T18:05:29.234Z,57.58
2023-03-04T18:10:30.611Z,57.57
2023-03-04T18:15:32.147Z,57.09
2023-03-04T18:20:33.646Z,57.71
2023-03-04T18:25:35.095Z,58.71
2023-03-04T18:30:38.205Z,58.01
2023-03-04T18:35:39.651Z,58.32
2023-03-04T18:40:42.169Z,58.76
2023-03-04T18:45:43.701Z,59.14
2023-03-04T18:50:45.355Z,59.00
2023-03-04T18:55:46.829Z,58.62
2023-03-04T19:00:48.344Z,58.16
2023-03-04T19:05:49.976Z,58.78
2023-03-04T19:10:51.441Z,58.92
2023-03-04T19:15:54.441Z,58.79
2023-03-04T19:20:59.562Z,59.04
2023-03-04T19:26:01.080Z,58.75
2023-03-04T19:31:07.381Z,58.53
2023-03-04T19:36:09.566Z,58.28
2023-03-04T19:41:13.981Z,58.53
2023-03-04T19:46:15.981Z,59.35
2023-03-04T19:51:19.831Z,58.83
2023-03-04T19:56:23.925Z,59.13
2023-03-04T20:01:30.892Z,58.39
2023-03-04T20:06:35.954Z,58.42
2023-03-04T20:11:44.222Z,58.25
2023-03-04T20:16:48.722Z,58.78
2023-03-04T20:21:50.141Z,58.50
2023-03-04T20:26:52.129Z,59.35
2023-03-04T20:31:53.533Z,58.30
2023-03-04T20:36:54.940Z,58.07
2023-03-04T20:41:59.429Z,58.40
2023-03-04T20:47:01.620Z,58.84
2023-03-04T20:52:06.287Z,58.78
2023-03-04T20:57:08.605Z,58.56
2023-03-04T21:02:14.900Z,59.21
2023-03-04T21:07:16.516Z,58.90
2023-03-04T21:12:17.977Z,59.07
2023-03-04T21:17:19.371Z,59.01
2023-03-04T21:22:21.022Z,59.18
2023-03-04T21:27:22.521Z,59.99
2023-03-04T21:32:26.450Z,60.41
2023-03-04T21:37:27.936Z,59.22
2023-03-04T21:42:29.434Z,59.76
2023-03-04T21:47:30.809Z,59.17
2023-03-04T21:52:32.179Z,59.29
2023-03-04T21:57:33.561Z,60.10
2023-03-04T22:02:34.972Z,60.84
2023-03-04T22:07:36.407Z,60.22
2023-03-04T22:12:37.770Z,60.30
2023-03-04T22:17:39.227Z,59.92
2023-03-04T22:22:40.648Z,59.96
2023-03-04T22:27:42.023Z,59.14
2023-03-04T22:32:48.260Z,59.66
2023-03-04T22:37:49.669Z,59.66
2023-03-04T22:42:51.117Z,59.61
2023-03-04T22:47:52.849Z,58.75
2023-03-04T22:52:54.369Z,59.13
2023-03-04T22:57:55.735Z,58.36
2023-03-04T23:02:57.807Z,58.33
2023-03-04T23:07:59.641Z,59.11
2023-03-04T23:13:01.024Z,58.30
2023-03-04T23:18:02.444Z,59.31
2023-03-04T23:23:03.832Z,59.04
2023-03-04T23:28:05.362Z,58.76
2023-03-04T23:33:06.754Z,58.51
2023-03-04T23:38:08.122Z,59.04
2023-03-04T23:43:09.544Z,59.29
2023-03-04T23:48:10.906Z,58.54
2023-03-04T23:53:12.301Z,58.26
2023-03-04T23:58:13.693Z,58.46
